sensor_id;sensor_type;location;lat;lon;timestamp;P1;durP1;ratioP1;P2;durP2;ratioP2
7017;SDS011;3549;42.162;24.726;2024-01-11T00:00:23;68.77;;;27.10;;
7017;SDS011;3549;42.162;24.726;2024-01-11T00:02:48;78.03;;;28.30;;
7017;SDS011;3549;42.162;24.726;2024-01-11T00:05:14;69.80;;;27.30;;
7017;SDS011;3549;42.162;24.726;2024-01-11T00:07:39;74.93;;;30.43;;
7017;SDS011;3549;42.162;24.726;2024-01-11T00:10:05;71.60;;;26.17;;
7017;SDS011;3549;42.162;24.726;2024-01-11T00:12:30;71.47;;;27.47;;
7017;SDS011;3549;42.162;24.726;2024-01-11T00:14:56;65.57;;;25.33;;
7017;SDS011;3549;42.162;24.726;2024-01-11T00:17:23;76.75;;;28.20;;
7017;SDS011;3549;42.162;24.726;2024-01-11T00:19:50;63.85;;;25.95;;
7017;SDS011;3549;42.162;24.726;2024-01-11T00:22:15;70.63;;;25.83;;
7017;SDS011;3549;42.162;24.726;2024-01-11T00:24:41;75.97;;;26.90;;
7017;SDS011;3549;42.162;24.726;2024-01-11T00:27:06;74.93;;;28.53;;
7017;SDS011;3549;42.162;24.726;2024-01-11T00:29:32;55.80;;;21.20;;
7017;SDS011;3549;42.162;24.726;2024-01-11T00:31:57;85.73;;;32.83;;
7017;SDS011;3549;42.162;24.726;2024-01-11T00:34:23;85.50;;;30.97;;
7017;SDS011;3549;42.162;24.726;2024-01-11T00:36:49;85.27;;;31.60;;
7017;SDS011;3549;42.162;24.726;2024-01-11T00:39:15;88.72;;;34.20;;
7017;SDS011;3549;42.162;24.726;2024-01-11T00:41:40;89.43;;;32.30;;
7017;SDS011;3549;42.162;24.726;2024-01-11T00:44:06;86.87;;;33.13;;
7017;SDS011;3549;42.162;24.726;2024-01-11T00:46:32;89.70;;;34.58;;
7017;SDS011;3549;42.162;24.726;2024-01-11T00:48:58;95.97;;;35.30;;
7017;SDS011;3549;42.162;24.726;2024-01-11T00:51:23;93.50;;;34.50;;
7017;SDS011;3549;42.162;24.726;2024-01-11T00:53:49;103.97;;;37.50;;
7017;SDS011;3549;42.162;24.726;2024-01-11T00:56:17;106.50;;;36.90;;
7017;SDS011;3549;42.162;24.726;2024-01-11T00:58:44;92.35;;;35.25;;
7017;SDS011;3549;42.162;24.726;2024-01-11T01:01:10;89.93;;;34.63;;
7017;SDS011;3549;42.162;24.726;2024-01-11T01:03:35;100.57;;;37.13;;
7017;SDS011;3549;42.162;24.726;2024-01-11T01:06:01;92.70;;;36.20;;
7017;SDS011;3549;42.162;24.726;2024-01-11T01:08:27;100.53;;;37.78;;
7017;SDS011;3549;42.162;24.726;2024-01-11T01:10:53;89.07;;;36.03;;
7017;SDS011;3549;42.162;24.726;2024-01-11T01:13:18;89.43;;;33.77;;
7017;SDS011;3549;42.162;24.726;2024-01-11T01:15:44;86.37;;;32.10;;
7017;SDS011;3549;42.162;24.726;2024-01-11T01:18:09;73.20;;;31.30;;
7017;SDS011;3549;42.162;24.726;2024-01-11T01:20:35;73.37;;;31.07;;
7017;SDS011;3549;42.162;24.726;2024-01-11T01:23:01;74.50;;;32.40;;
7017;SDS011;3549;42.162;24.726;2024-01-11T01:25:26;62.42;;;27.80;;
7017;SDS011;3549;42.162;24.726;2024-01-11T01:27:52;63.43;;;27.77;;
7017;SDS011;3549;42.162;24.726;2024-01-11T01:30:17;71.83;;;28.60;;
7017;SDS011;3549;42.162;24.726;2024-01-11T01:32:43;58.77;;;27.27;;
7017;SDS011;3549;42.162;24.726;2024-01-11T01:35:08;66.60;;;28.30;;
7017;SDS011;3549;42.162;24.726;2024-01-11T01:37:33;70.13;;;28.57;;
7017;SDS011;3549;42.162;24.726;2024-01-11T01:39:59;61.03;;;27.07;;
7017;SDS011;3549;42.162;24.726;2024-01-11T01:42:24;62.20;;;26.80;;
7017;SDS011;3549;42.162;24.726;2024-01-11T01:44:50;64.93;;;27.03;;
7017;SDS011;3549;42.162;24.726;2024-01-11T01:47:15;71.73;;;30.57;;
7017;SDS011;3549;42.162;24.726;2024-01-11T01:49:42;72.20;;;29.70;;
7017;SDS011;3549;42.162;24.726;2024-01-11T01:52:08;69.70;;;29.80;;
7017;SDS011;3549;42.162;24.726;2024-01-11T01:54:34;74.72;;;29.95;;
7017;SDS011;3549;42.162;24.726;2024-01-11T01:57:00;65.00;;;26.40;;
7017;SDS011;3549;42.162;24.726;2024-01-11T01:59:27;67.60;;;28.67;;
7017;SDS011;3549;42.162;24.726;2024-01-11T02:01:55;64.40;;;26.75;;
7017;SDS011;3549;42.162;24.726;2024-01-11T02:04:21;67.03;;;28.80;;
7017;SDS011;3549;42.162;24.726;2024-01-11T02:06:48;72.13;;;30.75;;
7017;SDS011;3549;42.162;24.726;2024-01-11T02:09:14;68.95;;;27.70;;
7017;SDS011;3549;42.162;24.726;2024-01-11T02:11:42;66.78;;;29.30;;
7017;SDS011;3549;42.162;24.726;2024-01-11T02:14:10;61.40;;;26.60;;
7017;SDS011;3549;42.162;24.726;2024-01-11T02:16:36;71.35;;;29.70;;
7017;SDS011;3549;42.162;24.726;2024-01-11T02:19:01;75.90;;;30.93;;
7017;SDS011;3549;42.162;24.726;2024-01-11T02:21:28;69.25;;;29.23;;
7017;SDS011;3549;42.162;24.726;2024-01-11T02:24:02;60.83;;;26.58;;
7017;SDS011;3549;42.162;24.726;2024-01-11T02:26:28;59.65;;;25.08;;
7017;SDS011;3549;42.162;24.726;2024-01-11T02:28:54;54.33;;;23.20;;
7017;SDS011;3549;42.162;24.726;2024-01-11T02:31:19;56.63;;;24.03;;
7017;SDS011;3549;42.162;24.726;2024-01-11T02:33:45;59.47;;;24.53;;
7017;SDS011;3549;42.162;24.726;2024-01-11T02:36:10;51.80;;;21.77;;
7017;SDS011;3549;42.162;24.726;2024-01-11T02:38:36;56.23;;;22.63;;
7017;SDS011;3549;42.162;24.726;2024-01-11T02:41:02;57.67;;;22.88;;
7017;SDS011;3549;42.162;24.726;2024-01-11T02:43:28;53.90;;;23.57;;
7017;SDS011;3549;42.162;24.726;2024-01-11T02:45:54;53.00;;;21.63;;
7017;SDS011;3549;42.162;24.726;2024-01-11T02:48:20;48.28;;;21.67;;
7017;SDS011;3549;42.162;24.726;2024-01-11T02:50:47;49.83;;;20.67;;
7017;SDS011;3549;42.162;24.726;2024-01-11T02:53:13;49.53;;;20.73;;
7017;SDS011;3549;42.162;24.726;2024-01-11T02:55:38;45.07;;;20.60;;
7017;SDS011;3549;42.162;24.726;2024-01-11T02:58:04;41.30;;;17.77;;
7017;SDS011;3549;42.162;24.726;2024-01-11T03:00:29;38.87;;;17.23;;
7017;SDS011;3549;42.162;24.726;2024-01-11T03:02:55;45.30;;;17.67;;
7017;SDS011;3549;42.162;24.726;2024-01-11T03:05:20;40.47;;;17.37;;
7017;SDS011;3549;42.162;24.726;2024-01-11T03:07:46;42.17;;;18.43;;
7017;SDS011;3549;42.162;24.726;2024-01-11T03:10:11;41.90;;;18.63;;
7017;SDS011;3549;42.162;24.726;2024-01-11T03:12:37;40.23;;;17.13;;
7017;SDS011;3549;42.162;24.726;2024-01-11T03:15:02;43.87;;;17.77;;
7017;SDS011;3549;42.162;24.726;2024-01-11T03:17:28;43.47;;;19.00;;
7017;SDS011;3549;42.162;24.726;2024-01-11T03:19:53;43.77;;;19.10;;
7017;SDS011;3549;42.162;24.726;2024-01-11T03:22:19;32.60;;;13.47;;
7017;SDS011;3549;42.162;24.726;2024-01-11T03:24:44;41.23;;;17.00;;
7017;SDS011;3549;42.162;24.726;2024-01-11T03:27:09;38.73;;;16.37;;
7017;SDS011;3549;42.162;24.726;2024-01-11T03:29:35;35.87;;;15.93;;
7017;SDS011;3549;42.162;24.726;2024-01-11T03:32:00;40.73;;;17.37;;
7017;SDS011;3549;42.162;24.726;2024-01-11T03:34:26;40.97;;;16.33;;
7017;SDS011;3549;42.162;24.726;2024-01-11T03:36:51;36.10;;;16.03;;
7017;SDS011;3549;42.162;24.726;2024-01-11T03:39:16;34.60;;;13.80;;
7017;SDS011;3549;42.162;24.726;2024-01-11T03:41:46;38.38;;;16.30;;
7017;SDS011;3549;42.162;24.726;2024-01-11T03:44:12;42.10;;;17.60;;
7017;SDS011;3549;42.162;24.726;2024-01-11T03:46:38;37.03;;;17.17;;
7017;SDS011;3549;42.162;24.726;2024-01-11T03:49:03;36.07;;;15.20;;
7017;SDS011;3549;42.162;24.726;2024-01-11T03:51:29;28.53;;;14.07;;
7017;SDS011;3549;42.162;24.726;2024-01-11T03:53:54;34.23;;;15.13;;
7017;SDS011;3549;42.162;24.726;2024-01-11T03:56:19;30.63;;;13.90;;
7017;SDS011;3549;42.162;24.726;2024-01-11T03:58:45;40.70;;;15.17;;
7017;SDS011;3549;42.162;24.726;2024-01-11T04:01:10;34.40;;;14.90;;
7017;SDS011;3549;42.162;24.726;2024-01-11T04:03:36;30.93;;;15.13;;
7017;SDS011;3549;42.162;24.726;2024-01-11T04:06:02;33.08;;;14.55;;
7017;SDS011;3549;42.162;24.726;2024-01-11T04:08:28;36.55;;;16.30;;
7017;SDS011;3549;42.162;24.726;2024-01-11T04:10:54;40.43;;;16.97;;
7017;SDS011;3549;42.162;24.726;2024-01-11T04:13:19;43.07;;;17.03;;
7017;SDS011;3549;42.162;24.726;2024-01-11T04:15:44;38.80;;;15.83;;
7017;SDS011;3549;42.162;24.726;2024-01-11T04:18:10;33.77;;;14.73;;
7017;SDS011;3549;42.162;24.726;2024-01-11T04:20:35;33.57;;;14.60;;
7017;SDS011;3549;42.162;24.726;2024-01-11T04:23:00;31.90;;;14.47;;
7017;SDS011;3549;42.162;24.726;2024-01-11T04:25:26;87.07;;;35.67;;
7017;SDS011;3549;42.162;24.726;2024-01-11T04:27:51;43.10;;;19.70;;
7017;SDS011;3549;42.162;24.726;2024-01-11T04:30:17;38.00;;;15.83;;
7017;SDS011;3549;42.162;24.726;2024-01-11T04:32:42;40.00;;;16.27;;
7017;SDS011;3549;42.162;24.726;2024-01-11T04:35:08;40.63;;;17.53;;
7017;SDS011;3549;42.162;24.726;2024-01-11T04:37:33;39.00;;;17.37;;
7017;SDS011;3549;42.162;24.726;2024-01-11T04:40:00;46.10;;;18.60;;
7017;SDS011;3549;42.162;24.726;2024-01-11T04:42:29;42.93;;;16.97;;
7017;SDS011;3549;42.162;24.726;2024-01-11T04:44:54;38.90;;;17.40;;
7017;SDS011;3549;42.162;24.726;2024-01-11T04:47:20;47.73;;;21.80;;
7017;SDS011;3549;42.162;24.726;2024-01-11T04:49:45;41.50;;;18.40;;
7017;SDS011;3549;42.162;24.726;2024-01-11T04:52:10;42.07;;;17.70;;
7017;SDS011;3549;42.162;24.726;2024-01-11T04:54:36;39.43;;;16.30;;
7017;SDS011;3549;42.162;24.726;2024-01-11T04:57:01;40.77;;;17.40;;
7017;SDS011;3549;42.162;24.726;2024-01-11T04:59:27;36.88;;;14.95;;
7017;SDS011;3549;42.162;24.726;2024-01-11T05:01:53;47.13;;;18.33;;
7017;SDS011;3549;42.162;24.726;2024-01-11T05:04:18;42.13;;;17.20;;
7017;SDS011;3549;42.162;24.726;2024-01-11T05:06:44;47.17;;;19.33;;
7017;SDS011;3549;42.162;24.726;2024-01-11T05:09:09;43.50;;;18.87;;
7017;SDS011;3549;42.162;24.726;2024-01-11T05:11:35;44.47;;;19.70;;
7017;SDS011;3549;42.162;24.726;2024-01-11T05:14:00;48.50;;;20.30;;
7017;SDS011;3549;42.162;24.726;2024-01-11T05:16:29;45.50;;;18.33;;
7017;SDS011;3549;42.162;24.726;2024-01-11T05:18:55;49.80;;;20.58;;
7017;SDS011;3549;42.162;24.726;2024-01-11T05:21:21;48.38;;;19.60;;
7017;SDS011;3549;42.162;24.726;2024-01-11T05:23:47;53.20;;;21.17;;
7017;SDS011;3549;42.162;24.726;2024-01-11T05:26:16;48.33;;;20.55;;
7017;SDS011;3549;42.162;24.726;2024-01-11T05:28:43;78.93;;;30.98;;
7017;SDS011;3549;42.162;24.726;2024-01-11T05:31:12;76.37;;;32.67;;
7017;SDS011;3549;42.162;24.726;2024-01-11T05:33:40;69.90;;;28.90;;
7017;SDS011;3549;42.162;24.726;2024-01-11T05:36:06;59.92;;;25.20;;
7017;SDS011;3549;42.162;24.726;2024-01-11T05:38:32;55.60;;;24.90;;
7017;SDS011;3549;42.162;24.726;2024-01-11T05:40:57;58.77;;;23.03;;
7017;SDS011;3549;42.162;24.726;2024-01-11T05:43:23;51.87;;;22.33;;
7017;SDS011;3549;42.162;24.726;2024-01-11T05:45:49;68.80;;;26.77;;
7017;SDS011;3549;42.162;24.726;2024-01-11T05:48:15;68.78;;;26.40;;
7017;SDS011;3549;42.162;24.726;2024-01-11T05:50:41;76.65;;;27.88;;
7017;SDS011;3549;42.162;24.726;2024-01-11T05:53:07;103.60;;;39.50;;
7017;SDS011;3549;42.162;24.726;2024-01-11T05:55:33;79.53;;;35.60;;
7017;SDS011;3549;42.162;24.726;2024-01-11T05:57:58;76.33;;;30.23;;
7017;SDS011;3549;42.162;24.726;2024-01-11T06:00:24;104.90;;;44.00;;
7017;SDS011;3549;42.162;24.726;2024-01-11T06:02:50;173.73;;;59.13;;
7017;SDS011;3549;42.162;24.726;2024-01-11T06:05:15;102.10;;;42.03;;
7017;SDS011;3549;42.162;24.726;2024-01-11T06:07:41;76.63;;;35.87;;
7017;SDS011;3549;42.162;24.726;2024-01-11T06:10:07;71.73;;;30.17;;
7017;SDS011;3549;42.162;24.726;2024-01-11T06:12:34;64.85;;;26.98;;
7017;SDS011;3549;42.162;24.726;2024-01-11T06:15:00;75.93;;;33.80;;
7017;SDS011;3549;42.162;24.726;2024-01-11T06:17:26;79.45;;;34.28;;
7017;SDS011;3549;42.162;24.726;2024-01-11T06:19:51;115.90;;;42.73;;
7017;SDS011;3549;42.162;24.726;2024-01-11T06:22:17;85.17;;;31.03;;
7017;SDS011;3549;42.162;24.726;2024-01-11T06:24:43;121.47;;;42.47;;
7017;SDS011;3549;42.162;24.726;2024-01-11T06:27:08;189.70;;;55.60;;
7017;SDS011;3549;42.162;24.726;2024-01-11T06:29:34;191.83;;;58.80;;
7017;SDS011;3549;42.162;24.726;2024-01-11T06:31:59;143.90;;;50.17;;
7017;SDS011;3549;42.162;24.726;2024-01-11T06:34:25;123.77;;;47.67;;
7017;SDS011;3549;42.162;24.726;2024-01-11T06:36:50;113.30;;;41.57;;
7017;SDS011;3549;42.162;24.726;2024-01-11T06:39:15;152.77;;;60.23;;
7017;SDS011;3549;42.162;24.726;2024-01-11T06:41:41;145.03;;;57.43;;
7017;SDS011;3549;42.162;24.726;2024-01-11T06:44:07;171.27;;;66.63;;
7017;SDS011;3549;42.162;24.726;2024-01-11T06:46:32;157.63;;;60.30;;
7017;SDS011;3549;42.162;24.726;2024-01-11T06:48:58;164.37;;;62.87;;
7017;SDS011;3549;42.162;24.726;2024-01-11T06:51:23;292.07;;;109.57;;
7017;SDS011;3549;42.162;24.726;2024-01-11T06:53:49;359.80;;;133.30;;
7017;SDS011;3549;42.162;24.726;2024-01-11T06:58:41;375.67;;;143.75;;
7017;SDS011;3549;42.162;24.726;2024-01-11T07:01:06;263.13;;;97.40;;
7017;SDS011;3549;42.162;24.726;2024-01-11T07:03:32;235.30;;;85.10;;
7017;SDS011;3549;42.162;24.726;2024-01-11T07:05:57;184.50;;;70.03;;
7017;SDS011;3549;42.162;24.726;2024-01-11T07:08:23;131.33;;;49.37;;
7017;SDS011;3549;42.162;24.726;2024-01-11T07:10:48;71.60;;;31.17;;
7017;SDS011;3549;42.162;24.726;2024-01-11T07:13:15;57.45;;;25.60;;
7017;SDS011;3549;42.162;24.726;2024-01-11T07:15:42;57.80;;;27.02;;
7017;SDS011;3549;42.162;24.726;2024-01-11T07:18:08;65.97;;;30.23;;
7017;SDS011;3549;42.162;24.726;2024-01-11T07:20:33;91.63;;;38.67;;
7017;SDS011;3549;42.162;24.726;2024-01-11T07:22:59;61.40;;;26.10;;
7017;SDS011;3549;42.162;24.726;2024-01-11T07:25:24;71.63;;;28.77;;
7017;SDS011;3549;42.162;24.726;2024-01-11T07:27:50;51.57;;;22.40;;
7017;SDS011;3549;42.162;24.726;2024-01-11T07:30:16;49.03;;;22.03;;
7017;SDS011;3549;42.162;24.726;2024-01-11T07:32:43;55.30;;;24.60;;
7017;SDS011;3549;42.162;24.726;2024-01-11T07:35:09;72.97;;;30.40;;
7017;SDS011;3549;42.162;24.726;2024-01-11T07:37:38;47.83;;;22.90;;
7017;SDS011;3549;42.162;24.726;2024-01-11T07:40:06;86.57;;;31.80;;
7017;SDS011;3549;42.162;24.726;2024-01-11T07:42:38;43.00;;;17.97;;
7017;SDS011;3549;42.162;24.726;2024-01-11T07:45:05;46.72;;;19.40;;
7017;SDS011;3549;42.162;24.726;2024-01-11T07:47:32;30.65;;;14.25;;
7017;SDS011;3549;42.162;24.726;2024-01-11T07:49:58;35.45;;;16.52;;
7017;SDS011;3549;42.162;24.726;2024-01-11T07:52:23;33.83;;;14.47;;
7017;SDS011;3549;42.162;24.726;2024-01-11T07:55:07;32.05;;;14.45;;
7017;SDS011;3549;42.162;24.726;2024-01-11T07:57:42;26.65;;;11.57;;
7017;SDS011;3549;42.162;24.726;2024-01-11T08:00:11;27.45;;;12.38;;
7017;SDS011;3549;42.162;24.726;2024-01-11T08:03:01;51.08;;;25.95;;
7017;SDS011;3549;42.162;24.726;2024-01-11T08:05:26;69.77;;;26.83;;
7017;SDS011;3549;42.162;24.726;2024-01-11T08:07:52;62.20;;;25.03;;
7017;SDS011;3549;42.162;24.726;2024-01-11T08:10:17;33.90;;;16.17;;
7017;SDS011;3549;42.162;24.726;2024-01-11T08:12:43;41.13;;;19.20;;
7017;SDS011;3549;42.162;24.726;2024-01-11T08:15:08;73.00;;;32.53;;
7017;SDS011;3549;42.162;24.726;2024-01-11T08:17:37;57.93;;;25.37;;
7017;SDS011;3549;42.162;24.726;2024-01-11T08:20:10;37.87;;;16.83;;
7017;SDS011;3549;42.162;24.726;2024-01-11T08:22:37;45.77;;;18.47;;
7017;SDS011;3549;42.162;24.726;2024-01-11T08:25:08;31.63;;;14.00;;
7017;SDS011;3549;42.162;24.726;2024-01-11T08:27:34;36.23;;;16.70;;
7017;SDS011;3549;42.162;24.726;2024-01-11T08:30:00;56.33;;;26.37;;
7017;SDS011;3549;42.162;24.726;2024-01-11T08:32:32;59.87;;;28.83;;
7017;SDS011;3549;42.162;24.726;2024-01-11T08:35:04;97.17;;;42.93;;
7017;SDS011;3549;42.162;24.726;2024-01-11T08:37:31;75.23;;;32.00;;
7017;SDS011;3549;42.162;24.726;2024-01-11T08:39:57;100.83;;;40.23;;
7017;SDS011;3549;42.162;24.726;2024-01-11T08:42:22;69.27;;;32.43;;
7017;SDS011;3549;42.162;24.726;2024-01-11T08:44:48;73.43;;;33.00;;
7017;SDS011;3549;42.162;24.726;2024-01-11T08:47:13;75.90;;;32.97;;
7017;SDS011;3549;42.162;24.726;2024-01-11T08:49:39;95.87;;;38.87;;
7017;SDS011;3549;42.162;24.726;2024-01-11T08:52:05;58.20;;;27.93;;
7017;SDS011;3549;42.162;24.726;2024-01-11T08:54:31;48.10;;;23.23;;
7017;SDS011;3549;42.162;24.726;2024-01-11T08:57:00;52.00;;;24.53;;
7017;SDS011;3549;42.162;24.726;2024-01-11T08:59:25;37.70;;;20.90;;
7017;SDS011;3549;42.162;24.726;2024-01-11T09:01:51;45.67;;;22.93;;
7017;SDS011;3549;42.162;24.726;2024-01-11T09:04:17;36.20;;;18.57;;
7017;SDS011;3549;42.162;24.726;2024-01-11T09:06:43;43.73;;;21.30;;
7017;SDS011;3549;42.162;24.726;2024-01-11T09:09:10;42.87;;;21.27;;
7017;SDS011;3549;42.162;24.726;2024-01-11T09:11:39;34.73;;;17.37;;
7017;SDS011;3549;42.162;24.726;2024-01-11T09:14:08;38.57;;;17.37;;
7017;SDS011;3549;42.162;24.726;2024-01-11T09:16:37;64.17;;;28.73;;
7017;SDS011;3549;42.162;24.726;2024-01-11T09:19:04;78.70;;;33.23;;
7017;SDS011;3549;42.162;24.726;2024-01-11T09:21:30;42.73;;;20.90;;
7017;SDS011;3549;42.162;24.726;2024-01-11T09:23:55;60.90;;;26.43;;
7017;SDS011;3549;42.162;24.726;2024-01-11T09:26:21;55.20;;;24.37;;
7017;SDS011;3549;42.162;24.726;2024-01-11T09:28:47;43.40;;;18.97;;
7017;SDS011;3549;42.162;24.726;2024-01-11T09:31:13;54.43;;;26.40;;
7017;SDS011;3549;42.162;24.726;2024-01-11T09:33:39;43.17;;;22.07;;
7017;SDS011;3549;42.162;24.726;2024-01-11T09:36:04;43.93;;;21.90;;
7017;SDS011;3549;42.162;24.726;2024-01-11T09:38:30;44.93;;;22.27;;
7017;SDS011;3549;42.162;24.726;2024-01-11T09:41:05;34.67;;;17.00;;
7017;SDS011;3549;42.162;24.726;2024-01-11T09:43:33;50.13;;;23.50;;
7017;SDS011;3549;42.162;24.726;2024-01-11T09:46:00;36.03;;;18.57;;
7017;SDS011;3549;42.162;24.726;2024-01-11T09:48:29;43.03;;;20.63;;
7017;SDS011;3549;42.162;24.726;2024-01-11T09:50:55;71.00;;;32.87;;
7017;SDS011;3549;42.162;24.726;2024-01-11T09:53:24;35.97;;;17.13;;
7017;SDS011;3549;42.162;24.726;2024-01-11T09:55:51;32.73;;;16.70;;
7017;SDS011;3549;42.162;24.726;2024-01-11T09:58:19;29.97;;;12.73;;
7017;SDS011;3549;42.162;24.726;2024-01-11T10:00:46;34.30;;;18.13;;
7017;SDS011;3549;42.162;24.726;2024-01-11T10:03:21;35.67;;;17.33;;
7017;SDS011;3549;42.162;24.726;2024-01-11T10:05:56;32.00;;;16.40;;
7017;SDS011;3549;42.162;24.726;2024-01-11T10:08:23;30.07;;;16.47;;
7017;SDS011;3549;42.162;24.726;2024-01-11T10:11:05;46.87;;;20.40;;
7017;SDS011;3549;42.162;24.726;2024-01-11T10:13:33;48.10;;;20.83;;
7017;SDS011;3549;42.162;24.726;2024-01-11T10:16:14;43.67;;;21.13;;
7017;SDS011;3549;42.162;24.726;2024-01-11T10:18:45;37.50;;;17.90;;
7017;SDS011;3549;42.162;24.726;2024-01-11T10:21:16;103.03;;;43.47;;
7017;SDS011;3549;42.162;24.726;2024-01-11T10:23:42;30.77;;;16.03;;
7017;SDS011;3549;42.162;24.726;2024-01-11T10:26:08;32.33;;;16.80;;
7017;SDS011;3549;42.162;24.726;2024-01-11T10:28:42;55.60;;;26.80;;
7017;SDS011;3549;42.162;24.726;2024-01-11T10:31:17;75.00;;;34.13;;
7017;SDS011;3549;42.162;24.726;2024-01-11T10:33:52;39.00;;;19.47;;
7017;SDS011;3549;42.162;24.726;2024-01-11T10:36:18;32.20;;;17.00;;
7017;SDS011;3549;42.162;24.726;2024-01-11T10:38:47;120.30;;;44.33;;
7017;SDS011;3549;42.162;24.726;2024-01-11T10:41:17;59.23;;;25.23;;
7017;SDS011;3549;42.162;24.726;2024-01-11T10:50:25;28.27;;;14.27;;
7017;SDS011;3549;42.162;24.726;2024-01-11T10:56:00;27.53;;;15.30;;
7017;SDS011;3549;42.162;24.726;2024-01-11T10:58:29;29.00;;;15.03;;
7017;SDS011;3549;42.162;24.726;2024-01-11T11:00:59;27.97;;;15.73;;
7017;SDS011;3549;42.162;24.726;2024-01-11T11:03:26;50.23;;;21.73;;
7017;SDS011;3549;42.162;24.726;2024-01-11T11:05:59;49.60;;;24.93;;
7017;SDS011;3549;42.162;24.726;2024-01-11T11:08:25;41.73;;;20.30;;
7017;SDS011;3549;42.162;24.726;2024-01-11T11:10:59;66.57;;;28.90;;
7017;SDS011;3549;42.162;24.726;2024-01-11T11:13:34;40.03;;;21.03;;
7017;SDS011;3549;42.162;24.726;2024-01-11T11:16:06;64.27;;;31.00;;
7017;SDS011;3549;42.162;24.726;2024-01-11T11:18:32;79.40;;;37.20;;
7017;SDS011;3549;42.162;24.726;2024-01-11T11:21:09;54.13;;;26.83;;
7017;SDS011;3549;42.162;24.726;2024-01-11T11:23:48;55.23;;;27.57;;
7017;SDS011;3549;42.162;24.726;2024-01-11T11:26:16;38.23;;;18.77;;
7017;SDS011;3549;42.162;24.726;2024-01-11T11:28:43;52.00;;;28.20;;
7017;SDS011;3549;42.162;24.726;2024-01-11T11:31:10;59.07;;;30.57;;
7017;SDS011;3549;42.162;24.726;2024-01-11T11:33:59;42.33;;;21.37;;
7017;SDS011;3549;42.162;24.726;2024-01-11T11:39:48;31.80;;;16.43;;
7017;SDS011;3549;42.162;24.726;2024-01-11T11:42:39;35.37;;;18.10;;
7017;SDS011;3549;42.162;24.726;2024-01-11T11:52:54;37.50;;;20.93;;
7017;SDS011;3549;42.162;24.726;2024-01-11T11:55:24;23.73;;;12.63;;
7017;SDS011;3549;42.162;24.726;2024-01-11T11:57:50;45.27;;;21.30;;
7017;SDS011;3549;42.162;24.726;2024-01-11T12:00:18;47.87;;;22.33;;
7017;SDS011;3549;42.162;24.726;2024-01-11T12:02:47;96.27;;;40.00;;
7017;SDS011;3549;42.162;24.726;2024-01-11T12:05:38;25.63;;;14.53;;
7017;SDS011;3549;42.162;24.726;2024-01-11T12:08:29;34.27;;;18.40;;
7017;SDS011;3549;42.162;24.726;2024-01-11T12:13:55;27.77;;;14.70;;
7017;SDS011;3549;42.162;24.726;2024-01-11T12:16:35;32.33;;;16.47;;
7017;SDS011;3549;42.162;24.726;2024-01-11T12:19:20;51.50;;;22.97;;
7017;SDS011;3549;42.162;24.726;2024-01-11T12:21:59;58.90;;;27.00;;
7017;SDS011;3549;42.162;24.726;2024-01-11T12:24:39;19.70;;;12.10;;
7017;SDS011;3549;42.162;24.726;2024-01-11T12:30:06;34.67;;;16.50;;
7017;SDS011;3549;42.162;24.726;2024-01-11T12:32:34;21.67;;;10.93;;
7017;SDS011;3549;42.162;24.726;2024-01-11T12:35:43;88.20;;;35.70;;
7017;SDS011;3549;42.162;24.726;2024-01-11T12:45:29;95.33;;;46.23;;
7017;SDS011;3549;42.162;24.726;2024-01-11T12:48:40;63.90;;;35.37;;
7017;SDS011;3549;42.162;24.726;2024-01-11T12:51:51;31.73;;;19.20;;
7017;SDS011;3549;42.162;24.726;2024-01-11T12:54:17;37.17;;;23.10;;
7017;SDS011;3549;42.162;24.726;2024-01-11T12:56:44;81.17;;;37.10;;
7017;SDS011;3549;42.162;24.726;2024-01-11T12:59:10;48.20;;;29.93;;
7017;SDS011;3549;42.162;24.726;2024-01-11T13:01:37;72.00;;;37.30;;
7017;SDS011;3549;42.162;24.726;2024-01-11T13:04:03;140.23;;;70.60;;
7017;SDS011;3549;42.162;24.726;2024-01-11T13:06:29;37.03;;;20.90;;
7017;SDS011;3549;42.162;24.726;2024-01-11T13:08:56;94.03;;;47.70;;
7017;SDS011;3549;42.162;24.726;2024-01-11T13:11:22;43.30;;;28.13;;
7017;SDS011;3549;42.162;24.726;2024-01-11T13:13:49;67.97;;;38.27;;
7017;SDS011;3549;42.162;24.726;2024-01-11T13:16:14;60.30;;;36.50;;
7017;SDS011;3549;42.162;24.726;2024-01-11T13:18:40;37.13;;;22.43;;
7017;SDS011;3549;42.162;24.726;2024-01-11T13:21:06;31.00;;;18.40;;
7017;SDS011;3549;42.162;24.726;2024-01-11T13:23:37;35.53;;;21.93;;
7017;SDS011;3549;42.162;24.726;2024-01-11T13:26:03;34.60;;;19.83;;
7017;SDS011;3549;42.162;24.726;2024-01-11T13:28:29;30.27;;;18.70;;
7017;SDS011;3549;42.162;24.726;2024-01-11T13:30:55;60.03;;;26.43;;
7017;SDS011;3549;42.162;24.726;2024-01-11T13:33:22;25.70;;;16.57;;
7017;SDS011;3549;42.162;24.726;2024-01-11T13:35:48;33.47;;;19.70;;
7017;SDS011;3549;42.162;24.726;2024-01-11T13:38:14;39.47;;;23.37;;
7017;SDS011;3549;42.162;24.726;2024-01-11T13:40:40;27.83;;;16.90;;
7017;SDS011;3549;42.162;24.726;2024-01-11T13:43:08;21.30;;;13.67;;
7017;SDS011;3549;42.162;24.726;2024-01-11T13:45:34;29.83;;;17.70;;
7017;SDS011;3549;42.162;24.726;2024-01-11T13:48:01;36.00;;;20.02;;
7017;SDS011;3549;42.162;24.726;2024-01-11T13:50:27;27.63;;;16.50;;
7017;SDS011;3549;42.162;24.726;2024-01-11T13:52:53;32.20;;;18.17;;
7017;SDS011;3549;42.162;24.726;2024-01-11T13:55:18;32.90;;;19.03;;
7017;SDS011;3549;42.162;24.726;2024-01-11T13:57:46;28.50;;;16.40;;
7017;SDS011;3549;42.162;24.726;2024-01-11T14:00:12;51.33;;;26.20;;
7017;SDS011;3549;42.162;24.726;2024-01-11T14:02:38;42.63;;;22.93;;
7017;SDS011;3549;42.162;24.726;2024-01-11T14:05:05;43.27;;;25.40;;
7017;SDS011;3549;42.162;24.726;2024-01-11T14:07:34;30.10;;;16.60;;
7017;SDS011;3549;42.162;24.726;2024-01-11T14:10:00;47.07;;;27.47;;
7017;SDS011;3549;42.162;24.726;2024-01-11T14:12:25;38.20;;;19.17;;
7017;SDS011;3549;42.162;24.726;2024-01-11T14:14:51;36.13;;;20.73;;
7017;SDS011;3549;42.162;24.726;2024-01-11T14:17:16;28.83;;;17.13;;
7017;SDS011;3549;42.162;24.726;2024-01-11T14:19:42;34.50;;;18.33;;
7017;SDS011;3549;42.162;24.726;2024-01-11T14:22:07;27.10;;;14.93;;
7017;SDS011;3549;42.162;24.726;2024-01-11T14:24:32;32.30;;;17.47;;
7017;SDS011;3549;42.162;24.726;2024-01-11T14:26:58;27.43;;;14.23;;
7017;SDS011;3549;42.162;24.726;2024-01-11T14:29:24;26.67;;;14.97;;
7017;SDS011;3549;42.162;24.726;2024-01-11T14:31:49;20.73;;;10.90;;
7017;SDS011;3549;42.162;24.726;2024-01-11T14:34:15;20.03;;;11.43;;
7017;SDS011;3549;42.162;24.726;2024-01-11T14:36:41;22.80;;;11.63;;
7017;SDS011;3549;42.162;24.726;2024-01-11T14:39:06;22.00;;;12.37;;
7017;SDS011;3549;42.162;24.726;2024-01-11T14:41:32;25.90;;;14.37;;
7017;SDS011;3549;42.162;24.726;2024-01-11T14:43:59;33.73;;;17.27;;
7017;SDS011;3549;42.162;24.726;2024-01-11T14:46:28;40.93;;;23.00;;
7017;SDS011;3549;42.162;24.726;2024-01-11T14:48:54;41.17;;;22.77;;
7017;SDS011;3549;42.162;24.726;2024-01-11T14:51:19;44.60;;;19.30;;
7017;SDS011;3549;42.162;24.726;2024-01-11T14:53:44;36.23;;;18.43;;
7017;SDS011;3549;42.162;24.726;2024-01-11T14:56:10;39.53;;;19.00;;
7017;SDS011;3549;42.162;24.726;2024-01-11T14:58:37;41.07;;;18.70;;
7017;SDS011;3549;42.162;24.726;2024-01-11T15:01:02;39.57;;;19.33;;
7017;SDS011;3549;42.162;24.726;2024-01-11T15:03:28;37.53;;;18.57;;
7017;SDS011;3549;42.162;24.726;2024-01-11T15:05:54;50.40;;;26.93;;
7017;SDS011;3549;42.162;24.726;2024-01-11T15:08:20;44.97;;;21.50;;
7017;SDS011;3549;42.162;24.726;2024-01-11T15:10:46;42.93;;;24.93;;